AUA753Y LOWW-LATI
Flight info
| Callsign | AUA753Y |
|---|---|
| Flight time | 1h 9m |
| Altitude | 37000 |
| Route | ARSIN DCT NALOX DCT OSDUK DCT VIBOP DCT AKIKA DCT INLOT |
| Aircraft | A320/M-SDE3FGHIRWY/LB1 |
Departure
| Time | 2026-05-06 05:33 |
|---|---|
| Airport | Vienna International Airport (LOWW) |
Arrival
| Time | 2026-05-06 06:42 |
|---|---|
| Airport | Tirana International Airport Mother Teresa (LATI) |
| Time | Latitude | Longitude | Altitude | Speed | Heading |
|---|---|---|---|---|---|
| 2026-05-06 05:09 | 48.11631 | 16.56505 | 610 ft | 0 kts | 206° |
| 2026-05-06 05:26 | 48.11614 | 16.56492 | 623 ft | 4 kts | 206° |
| 2026-05-06 05:26 | 48.11572 | 16.56475 | 610 ft | 9 kts | 171° |
| 2026-05-06 05:26 | 48.11539 | 16.56542 | 619 ft | 7 kts | 114° |
| 2026-05-06 05:26 | 48.11520 | 16.56603 | 618 ft | 5 kts | 116° |
| 2026-05-06 05:27 | 48.11490 | 16.56695 | 613 ft | 13 kts | 116° |
| 2026-05-06 05:27 | 48.11449 | 16.56822 | 616 ft | 14 kts | 116° |
| 2026-05-06 05:27 | 48.11406 | 16.56954 | 624 ft | 14 kts | 116° |
| 2026-05-06 05:27 | 48.11359 | 16.57094 | 613 ft | 16 kts | 116° |
| 2026-05-06 05:28 | 48.11309 | 16.57248 | 615 ft | 13 kts | 116° |
| 2026-05-06 05:28 | 48.11336 | 16.57348 | 611 ft | 11 kts | 28° |
| 2026-05-06 05:28 | 48.11419 | 16.57408 | 617 ft | 13 kts | 26° |
| 2026-05-06 05:28 | 48.11503 | 16.57470 | 623 ft | 17 kts | 26° |
| 2026-05-06 05:29 | 48.11613 | 16.57551 | 621 ft | 15 kts | 5° |
| 2026-05-06 05:29 | 48.11709 | 16.57513 | 620 ft | 14 kts | 344° |
| 2026-05-06 05:29 | 48.11799 | 16.57476 | 611 ft | 13 kts | 345° |
| 2026-05-06 05:29 | 48.11883 | 16.57440 | 620 ft | 12 kts | 344° |
| 2026-05-06 05:30 | 48.11966 | 16.57405 | 619 ft | 14 kts | 345° |
| 2026-05-06 05:30 | 48.12014 | 16.57483 | 618 ft | 11 kts | 97° |
| 2026-05-06 05:30 | 48.11997 | 16.57583 | 614 ft | 2 kts | 105° |
| 2026-05-06 05:31 | 48.11997 | 16.57586 | 611 ft | 2 kts | 105° |
| 2026-05-06 05:31 | 48.11984 | 16.57657 | 611 ft | 11 kts | 105° |
| 2026-05-06 05:31 | 48.11965 | 16.57763 | 611 ft | 10 kts | 105° |
| 2026-05-06 05:32 | 48.11927 | 16.57837 | 617 ft | 11 kts | 154° |
| 2026-05-06 05:32 | 48.11723 | 16.57924 | 620 ft | 65 kts | 165° |
| 2026-05-06 05:32 | 48.11066 | 16.58204 | 616 ft | 129 kts | 164° |
| 2026-05-06 05:32 | 48.10045 | 16.58636 | 703 ft | 168 kts | 163° |
| 2026-05-06 05:33 | 48.08931 | 16.59130 | 1431 ft | 167 kts | 164° |
| 2026-05-06 05:33 | 48.07803 | 16.59630 | 2096 ft | 171 kts | 166° |
| 2026-05-06 05:33 | 48.06640 | 16.60126 | 2659 ft | 181 kts | 166° |
| 2026-05-06 05:33 | 48.05345 | 16.60669 | 3001 ft | 204 kts | 166° |
| 2026-05-06 05:34 | 48.03918 | 16.61265 | 3419 ft | 222 kts | 166° |
| 2026-05-06 05:34 | 48.02375 | 16.61913 | 3842 ft | 241 kts | 166° |
| 2026-05-06 05:34 | 48.00668 | 16.62625 | 4249 ft | 266 kts | 166° |
| 2026-05-06 05:34 | 47.98850 | 16.63345 | 5045 ft | 273 kts | 171° |
| 2026-05-06 05:35 | 47.96944 | 16.63449 | 5931 ft | 276 kts | 183° |
| 2026-05-06 05:35 | 47.95009 | 16.63335 | 6836 ft | 279 kts | 184° |
| 2026-05-06 05:35 | 47.93069 | 16.63183 | 7781 ft | 280 kts | 185° |
| 2026-05-06 05:35 | 47.91126 | 16.63022 | 8751 ft | 280 kts | 184° |
| 2026-05-06 05:36 | 47.89176 | 16.62871 | 9715 ft | 281 kts | 184° |
| 2026-05-06 05:36 | 47.87200 | 16.62728 | 10317 ft | 294 kts | 184° |
| 2026-05-06 05:36 | 47.85111 | 16.62585 | 10629 ft | 314 kts | 184° |
| 2026-05-06 05:36 | 47.82899 | 16.62441 | 11302 ft | 321 kts | 184° |
| 2026-05-06 05:37 | 47.80654 | 16.62299 | 12073 ft | 325 kts | 185° |
| 2026-05-06 05:37 | 47.78382 | 16.62158 | 12856 ft | 329 kts | 185° |
| 2026-05-06 05:37 | 47.76077 | 16.62356 | 13623 ft | 337 kts | 174° |
| 2026-05-06 05:37 | 47.73802 | 16.63344 | 14296 ft | 346 kts | 161° |
| 2026-05-06 05:38 | 47.71613 | 16.64895 | 14972 ft | 350 kts | 158° |
| 2026-05-06 05:38 | 47.69406 | 16.66468 | 15645 ft | 354 kts | 159° |
| 2026-05-06 05:38 | 47.67171 | 16.68041 | 16303 ft | 357 kts | 159° |
| 2026-05-06 05:38 | 47.64913 | 16.69623 | 16956 ft | 361 kts | 159° |
| 2026-05-06 05:39 | 47.62630 | 16.71216 | 17603 ft | 364 kts | 159° |
| 2026-05-06 05:39 | 47.60324 | 16.72829 | 18234 ft | 368 kts | 159° |
| 2026-05-06 05:39 | 47.57984 | 16.74394 | 18790 ft | 369 kts | 164° |
| 2026-05-06 05:39 | 47.55518 | 16.75387 | 19348 ft | 367 kts | 175° |
| 2026-05-06 05:40 | 47.52984 | 16.75745 | 19927 ft | 366 kts | 180° |
| 2026-05-06 05:40 | 47.50434 | 16.75982 | 20522 ft | 369 kts | 180° |
| 2026-05-06 05:40 | 47.47863 | 16.76217 | 21097 ft | 371 kts | 180° |
| 2026-05-06 05:40 | 47.45274 | 16.76456 | 21679 ft | 374 kts | 180° |
| 2026-05-06 05:41 | 47.42670 | 16.76700 | 22255 ft | 377 kts | 180° |
| 2026-05-06 05:41 | 47.40041 | 16.76956 | 22813 ft | 380 kts | 180° |
| 2026-05-06 05:41 | 47.37395 | 16.77215 | 23361 ft | 383 kts | 180° |
| 2026-05-06 05:41 | 47.34727 | 16.77472 | 23839 ft | 386 kts | 180° |
| 2026-05-06 05:42 | 47.32043 | 16.77729 | 24299 ft | 388 kts | 180° |
| 2026-05-06 05:42 | 47.29340 | 16.77986 | 24749 ft | 390 kts | 180° |
| 2026-05-06 05:42 | 47.26620 | 16.78242 | 25154 ft | 393 kts | 180° |
| 2026-05-06 05:42 | 47.23882 | 16.78499 | 25576 ft | 395 kts | 180° |
| 2026-05-06 05:43 | 47.21126 | 16.78759 | 25995 ft | 398 kts | 180° |
| 2026-05-06 05:43 | 47.18354 | 16.79023 | 26396 ft | 400 kts | 180° |
| 2026-05-06 05:43 | 47.15567 | 16.79291 | 26795 ft | 403 kts | 180° |
| 2026-05-06 05:43 | 47.12763 | 16.79561 | 27189 ft | 405 kts | 180° |
| 2026-05-06 05:44 | 47.09941 | 16.79831 | 27571 ft | 408 kts | 180° |
| 2026-05-06 05:44 | 47.07102 | 16.80100 | 27957 ft | 410 kts | 180° |
| 2026-05-06 05:44 | 47.04248 | 16.80370 | 28346 ft | 412 kts | 180° |
| 2026-05-06 05:44 | 47.01418 | 16.80632 | 28721 ft | 414 kts | 180° |
| 2026-05-06 05:45 | 46.98536 | 16.80900 | 29072 ft | 417 kts | 180° |
| 2026-05-06 05:45 | 46.95635 | 16.81175 | 29413 ft | 419 kts | 180° |
| 2026-05-06 05:45 | 46.92716 | 16.81453 | 29758 ft | 421 kts | 180° |
| 2026-05-06 05:45 | 46.89793 | 16.82073 | 30070 ft | 429 kts | 171° |
| 2026-05-06 05:46 | 46.86939 | 16.83452 | 30345 ft | 437 kts | 161° |
| 2026-05-06 05:46 | 46.84246 | 16.85588 | 30604 ft | 446 kts | 150° |
| 2026-05-06 05:46 | 46.81794 | 16.88422 | 30879 ft | 453 kts | 144° |
| 2026-05-06 05:46 | 46.79397 | 16.91426 | 31123 ft | 455 kts | 144° |
| 2026-05-06 05:47 | 46.76984 | 16.94434 | 31328 ft | 458 kts | 144° |
| 2026-05-06 05:47 | 46.74551 | 16.97447 | 31592 ft | 460 kts | 144° |
| 2026-05-06 05:47 | 46.72111 | 17.00461 | 31916 ft | 460 kts | 144° |
| 2026-05-06 05:47 | 46.69672 | 17.03475 | 32234 ft | 460 kts | 144° |
| 2026-05-06 05:48 | 46.67229 | 17.06494 | 32543 ft | 461 kts | 144° |
| 2026-05-06 05:48 | 46.64781 | 17.09509 | 32842 ft | 461 kts | 144° |
| 2026-05-06 05:48 | 46.62331 | 17.12522 | 33141 ft | 462 kts | 144° |
| 2026-05-06 05:48 | 46.59878 | 17.15535 | 33474 ft | 462 kts | 144° |
| 2026-05-06 05:49 | 46.57426 | 17.18551 | 33796 ft | 462 kts | 145° |
| 2026-05-06 05:49 | 46.54974 | 17.21567 | 34066 ft | 462 kts | 144° |
| 2026-05-06 05:49 | 46.52518 | 17.24581 | 34352 ft | 462 kts | 144° |
| 2026-05-06 05:49 | 46.50067 | 17.27586 | 34649 ft | 461 kts | 144° |
| 2026-05-06 05:50 | 46.47623 | 17.30581 | 34945 ft | 459 kts | 144° |
| 2026-05-06 05:50 | 46.45186 | 17.33560 | 35272 ft | 457 kts | 144° |
| 2026-05-06 05:50 | 46.42756 | 17.36522 | 35582 ft | 456 kts | 145° |
| 2026-05-06 05:50 | 46.40333 | 17.39471 | 35868 ft | 454 kts | 145° |
| 2026-05-06 05:51 | 46.37918 | 17.42411 | 36142 ft | 453 kts | 145° |
| 2026-05-06 05:51 | 46.35507 | 17.45342 | 36422 ft | 452 kts | 145° |
| 2026-05-06 05:51 | 46.33104 | 17.48261 | 36673 ft | 451 kts | 144° |
| 2026-05-06 05:51 | 46.30704 | 17.51173 | 36873 ft | 451 kts | 144° |
| 2026-05-06 05:52 | 46.25909 | 17.56983 | 36945 ft | 448 kts | 144° |
| 2026-05-06 05:52 | 46.21134 | 17.62748 | 36936 ft | 447 kts | 145° |
| 2026-05-06 05:53 | 46.16366 | 17.68491 | 36947 ft | 446 kts | 145° |
| 2026-05-06 05:53 | 46.11597 | 17.74219 | 36947 ft | 446 kts | 145° |
| 2026-05-06 05:54 | 46.06819 | 17.79956 | 36941 ft | 448 kts | 145° |
| 2026-05-06 05:54 | 46.02028 | 17.85694 | 36960 ft | 448 kts | 145° |
| 2026-05-06 05:55 | 45.97260 | 17.91383 | 36977 ft | 448 kts | 145° |
| 2026-05-06 05:55 | 45.92455 | 17.97101 | 36976 ft | 449 kts | 145° |
| 2026-05-06 05:56 | 45.87645 | 18.02808 | 36965 ft | 449 kts | 145° |
| 2026-05-06 05:56 | 45.82829 | 18.08520 | 36968 ft | 450 kts | 145° |
| 2026-05-06 05:57 | 45.77889 | 18.13972 | 36968 ft | 445 kts | 154° |
| 2026-05-06 05:57 | 45.72468 | 18.18154 | 36970 ft | 443 kts | 157° |
| 2026-05-06 05:58 | 45.67032 | 18.22298 | 36959 ft | 443 kts | 157° |
| 2026-05-06 05:58 | 45.61591 | 18.26442 | 36950 ft | 443 kts | 156° |
| 2026-05-06 05:59 | 45.56144 | 18.30584 | 36958 ft | 444 kts | 156° |
| 2026-05-06 05:59 | 45.50682 | 18.34719 | 36960 ft | 445 kts | 156° |
| 2026-05-06 06:00 | 45.45214 | 18.38847 | 36960 ft | 445 kts | 157° |
| 2026-05-06 06:00 | 45.39739 | 18.42974 | 36965 ft | 445 kts | 157° |
| 2026-05-06 06:01 | 45.34265 | 18.47098 | 36972 ft | 445 kts | 157° |
| 2026-05-06 06:01 | 45.28782 | 18.51221 | 36958 ft | 446 kts | 156° |
| 2026-05-06 06:02 | 45.24218 | 18.54642 | 36968 ft | 447 kts | 156° |
| 2026-05-06 06:02 | 45.17821 | 18.59420 | 36972 ft | 447 kts | 156° |
| 2026-05-06 06:03 | 45.12310 | 18.63522 | 36976 ft | 448 kts | 156° |
| 2026-05-06 06:03 | 45.06795 | 18.67632 | 36982 ft | 448 kts | 156° |
| 2026-05-06 06:04 | 45.02174 | 18.71063 | 36978 ft | 448 kts | 156° |
| 2026-05-06 06:04 | 44.96391 | 18.74057 | 36974 ft | 441 kts | 169° |
| 2026-05-06 06:05 | 44.90447 | 18.76237 | 36980 ft | 442 kts | 169° |
| 2026-05-06 06:05 | 44.84502 | 18.78442 | 36987 ft | 442 kts | 169° |
| 2026-05-06 06:06 | 44.78551 | 18.80644 | 36981 ft | 442 kts | 169° |
| 2026-05-06 06:06 | 44.72601 | 18.82833 | 36998 ft | 442 kts | 169° |
| 2026-05-06 06:07 | 44.66652 | 18.85023 | 37008 ft | 442 kts | 169° |
| 2026-05-06 06:07 | 44.60703 | 18.87203 | 37010 ft | 442 kts | 169° |
| 2026-05-06 06:08 | 44.54755 | 18.89372 | 37009 ft | 441 kts | 169° |
| 2026-05-06 06:08 | 44.48811 | 18.91540 | 37017 ft | 441 kts | 170° |
| 2026-05-06 06:09 | 44.42869 | 18.93700 | 37019 ft | 441 kts | 169° |
| 2026-05-06 06:09 | 44.36929 | 18.95860 | 37013 ft | 441 kts | 170° |
| 2026-05-06 06:10 | 44.30988 | 18.98009 | 37032 ft | 441 kts | 170° |
| 2026-05-06 06:10 | 44.25047 | 19.00155 | 37022 ft | 441 kts | 169° |
| 2026-05-06 06:11 | 44.19103 | 19.02301 | 37026 ft | 442 kts | 169° |
| 2026-05-06 06:11 | 44.13197 | 19.04429 | 37022 ft | 441 kts | 169° |
| 2026-05-06 06:12 | 44.07247 | 19.06570 | 37035 ft | 442 kts | 170° |
| 2026-05-06 06:12 | 44.01254 | 19.08723 | 37040 ft | 442 kts | 170° |
| 2026-05-06 06:13 | 43.95342 | 19.10838 | 37036 ft | 442 kts | 170° |
| 2026-05-06 06:13 | 43.89390 | 19.12964 | 37042 ft | 442 kts | 170° |
| 2026-05-06 06:14 | 43.83426 | 19.15096 | 37043 ft | 443 kts | 170° |
| 2026-05-06 06:14 | 43.77455 | 19.17226 | 37052 ft | 443 kts | 170° |
| 2026-05-06 06:15 | 43.71478 | 19.19343 | 37044 ft | 443 kts | 170° |
| 2026-05-06 06:15 | 43.65499 | 19.21458 | 37056 ft | 443 kts | 170° |
| 2026-05-06 06:16 | 43.59526 | 19.23576 | 37062 ft | 443 kts | 170° |
| 2026-05-06 06:16 | 43.56533 | 19.24637 | 36908 ft | 444 kts | 170° |
| 2026-05-06 06:16 | 43.53541 | 19.25689 | 36626 ft | 444 kts | 170° |
| 2026-05-06 06:17 | 43.50543 | 19.26739 | 36374 ft | 445 kts | 170° |
| 2026-05-06 06:17 | 43.47537 | 19.27793 | 36114 ft | 446 kts | 170° |
| 2026-05-06 06:17 | 43.44535 | 19.28853 | 35858 ft | 445 kts | 169° |
| 2026-05-06 06:17 | 43.41543 | 19.29910 | 35613 ft | 444 kts | 169° |
| 2026-05-06 06:18 | 43.38559 | 19.30964 | 35359 ft | 442 kts | 170° |
| 2026-05-06 06:18 | 43.35586 | 19.32010 | 35111 ft | 440 kts | 170° |
| 2026-05-06 06:18 | 43.32622 | 19.33045 | 34853 ft | 439 kts | 170° |
| 2026-05-06 06:18 | 43.29665 | 19.34075 | 34609 ft | 438 kts | 170° |
| 2026-05-06 06:19 | 43.26719 | 19.35102 | 34368 ft | 436 kts | 170° |
| 2026-05-06 06:19 | 43.23778 | 19.36125 | 34133 ft | 435 kts | 170° |
| 2026-05-06 06:19 | 43.20855 | 19.37141 | 33818 ft | 431 kts | 170° |
| 2026-05-06 06:19 | 43.17954 | 19.38150 | 33288 ft | 428 kts | 170° |
| 2026-05-06 06:20 | 43.15115 | 19.39140 | 32788 ft | 426 kts | 170° |
| 2026-05-06 06:20 | 43.12253 | 19.40138 | 32274 ft | 423 kts | 170° |
| 2026-05-06 06:20 | 43.09405 | 19.41128 | 31773 ft | 421 kts | 170° |
| 2026-05-06 06:20 | 43.06535 | 19.42125 | 31268 ft | 419 kts | 169° |
| 2026-05-06 06:21 | 43.03712 | 19.43102 | 30774 ft | 417 kts | 169° |
| 2026-05-06 06:21 | 43.00902 | 19.44073 | 30296 ft | 416 kts | 169° |
| 2026-05-06 06:21 | 42.98140 | 19.45026 | 29781 ft | 414 kts | 169° |
| 2026-05-06 06:21 | 42.95359 | 19.45986 | 29324 ft | 410 kts | 169° |
| 2026-05-06 06:22 | 42.92602 | 19.46939 | 28850 ft | 407 kts | 169° |
| 2026-05-06 06:22 | 42.89871 | 19.47883 | 28432 ft | 403 kts | 169° |
| 2026-05-06 06:22 | 42.87160 | 19.48822 | 27991 ft | 400 kts | 169° |
| 2026-05-06 06:22 | 42.84474 | 19.49751 | 27547 ft | 397 kts | 169° |
| 2026-05-06 06:23 | 42.81805 | 19.50672 | 27097 ft | 394 kts | 169° |
| 2026-05-06 06:23 | 42.79155 | 19.51586 | 26636 ft | 392 kts | 169° |
| 2026-05-06 06:23 | 42.76506 | 19.52496 | 26175 ft | 390 kts | 169° |
| 2026-05-06 06:23 | 42.73926 | 19.53380 | 25713 ft | 388 kts | 169° |
| 2026-05-06 06:24 | 42.71311 | 19.54272 | 25225 ft | 387 kts | 169° |
| 2026-05-06 06:24 | 42.68704 | 19.55161 | 24745 ft | 386 kts | 169° |
| 2026-05-06 06:24 | 42.66101 | 19.56049 | 24248 ft | 386 kts | 169° |
| 2026-05-06 06:24 | 42.63498 | 19.56937 | 23753 ft | 385 kts | 169° |
| 2026-05-06 06:25 | 42.60896 | 19.57826 | 23193 ft | 385 kts | 169° |
| 2026-05-06 06:25 | 42.58306 | 19.58712 | 22711 ft | 383 kts | 169° |
| 2026-05-06 06:25 | 42.53140 | 19.59968 | 21761 ft | 372 kts | 184° |
| 2026-05-06 06:26 | 42.50595 | 19.59628 | 21311 ft | 364 kts | 195° |
| 2026-05-06 06:26 | 42.48120 | 19.58939 | 20878 ft | 362 kts | 195° |
| 2026-05-06 06:26 | 42.45658 | 19.58262 | 20442 ft | 360 kts | 195° |
| 2026-05-06 06:26 | 42.43208 | 19.57591 | 20009 ft | 358 kts | 195° |
| 2026-05-06 06:27 | 42.40769 | 19.56922 | 19578 ft | 356 kts | 195° |
| 2026-05-06 06:27 | 42.38347 | 19.56258 | 19149 ft | 354 kts | 194° |
| 2026-05-06 06:27 | 42.35966 | 19.55606 | 18731 ft | 353 kts | 194° |
| 2026-05-06 06:27 | 42.33568 | 19.54951 | 18296 ft | 351 kts | 194° |
| 2026-05-06 06:28 | 42.31180 | 19.54301 | 17844 ft | 349 kts | 194° |
| 2026-05-06 06:28 | 42.28809 | 19.53659 | 17437 ft | 346 kts | 194° |
| 2026-05-06 06:28 | 42.26458 | 19.53024 | 17026 ft | 344 kts | 194° |
| 2026-05-06 06:28 | 42.24120 | 19.52390 | 16628 ft | 341 kts | 194° |
| 2026-05-06 06:29 | 42.21830 | 19.51766 | 16456 ft | 328 kts | 194° |
| 2026-05-06 06:29 | 42.19631 | 19.51171 | 15994 ft | 318 kts | 194° |
| 2026-05-06 06:29 | 42.17481 | 19.50588 | 15400 ft | 314 kts | 194° |
| 2026-05-06 06:29 | 42.15341 | 19.50008 | 15041 ft | 313 kts | 194° |
| 2026-05-06 06:30 | 42.13215 | 19.49433 | 14724 ft | 310 kts | 194° |
| 2026-05-06 06:30 | 42.11107 | 19.48859 | 14413 ft | 308 kts | 194° |
| 2026-05-06 06:30 | 42.09013 | 19.48289 | 14090 ft | 306 kts | 194° |
| 2026-05-06 06:30 | 42.06926 | 19.47721 | 13751 ft | 305 kts | 193° |
| 2026-05-06 06:31 | 42.04854 | 19.47158 | 13390 ft | 303 kts | 193° |
| 2026-05-06 06:31 | 42.02792 | 19.46600 | 13027 ft | 301 kts | 193° |
| 2026-05-06 06:31 | 42.00744 | 19.46049 | 12598 ft | 297 kts | 192° |
| 2026-05-06 06:31 | 41.98686 | 19.45873 | 11967 ft | 297 kts | 177° |
| 2026-05-06 06:32 | 41.96667 | 19.46405 | 11351 ft | 297 kts | 162° |
| 2026-05-06 06:32 | 41.94790 | 19.47586 | 10883 ft | 299 kts | 152° |
| 2026-05-06 06:32 | 41.92972 | 19.48910 | 10564 ft | 296 kts | 153° |
| 2026-05-06 06:32 | 41.91163 | 19.50207 | 10232 ft | 294 kts | 153° |
| 2026-05-06 06:33 | 41.89386 | 19.51472 | 9908 ft | 291 kts | 153° |
| 2026-05-06 06:33 | 41.87615 | 19.52731 | 9280 ft | 287 kts | 153° |
| 2026-05-06 06:33 | 41.85841 | 19.53992 | 8598 ft | 283 kts | 153° |
| 2026-05-06 06:33 | 41.84109 | 19.55226 | 7970 ft | 280 kts | 153° |
| 2026-05-06 06:34 | 41.82405 | 19.56441 | 7364 ft | 276 kts | 153° |
| 2026-05-06 06:34 | 41.80745 | 19.57626 | 6756 ft | 272 kts | 153° |
| 2026-05-06 06:34 | 41.79088 | 19.58810 | 6115 ft | 269 kts | 154° |
| 2026-05-06 06:34 | 41.77413 | 19.60006 | 5702 ft | 267 kts | 154° |
| 2026-05-06 06:35 | 41.75804 | 19.61153 | 5332 ft | 264 kts | 154° |
| 2026-05-06 06:35 | 41.74217 | 19.62283 | 5195 ft | 253 kts | 154° |
| 2026-05-06 06:35 | 41.72683 | 19.63374 | 5063 ft | 240 kts | 154° |
| 2026-05-06 06:35 | 41.71242 | 19.64400 | 4934 ft | 230 kts | 154° |
| 2026-05-06 06:36 | 41.69860 | 19.65384 | 4814 ft | 220 kts | 154° |
| 2026-05-06 06:36 | 41.68546 | 19.66319 | 4605 ft | 214 kts | 154° |
| 2026-05-06 06:36 | 41.67256 | 19.67236 | 4473 ft | 206 kts | 154° |
| 2026-05-06 06:36 | 41.66012 | 19.68120 | 4343 ft | 199 kts | 154° |
| 2026-05-06 06:37 | 41.64780 | 19.68870 | 4199 ft | 192 kts | 166° |
| 2026-05-06 06:37 | 41.63480 | 19.69142 | 4103 ft | 189 kts | 175° |
| 2026-05-06 06:37 | 41.62163 | 19.69305 | 3911 ft | 190 kts | 175° |
| 2026-05-06 06:37 | 41.60848 | 19.69475 | 3679 ft | 190 kts | 175° |
| 2026-05-06 06:38 | 41.59528 | 19.69650 | 3460 ft | 189 kts | 175° |
| 2026-05-06 06:38 | 41.58232 | 19.69823 | 3191 ft | 187 kts | 174° |
| 2026-05-06 06:38 | 41.56945 | 19.69994 | 2931 ft | 185 kts | 174° |
| 2026-05-06 06:38 | 41.55673 | 19.70164 | 2692 ft | 183 kts | 174° |
| 2026-05-06 06:39 | 41.54436 | 19.70330 | 2445 ft | 173 kts | 174° |
| 2026-05-06 06:39 | 41.53291 | 19.70482 | 2246 ft | 157 kts | 174° |
| 2026-05-06 06:39 | 41.52249 | 19.70621 | 2028 ft | 145 kts | 174° |
| 2026-05-06 06:39 | 41.51263 | 19.70753 | 1836 ft | 141 kts | 174° |
| 2026-05-06 06:40 | 41.50292 | 19.70883 | 1652 ft | 139 kts | 174° |
| 2026-05-06 06:40 | 41.49335 | 19.71009 | 1448 ft | 138 kts | 174° |
| 2026-05-06 06:40 | 41.48385 | 19.71123 | 1262 ft | 137 kts | 175° |
| 2026-05-06 06:40 | 41.47437 | 19.71241 | 1078 ft | 137 kts | 174° |
| 2026-05-06 06:41 | 41.46489 | 19.71379 | 886 ft | 137 kts | 174° |
| 2026-05-06 06:41 | 41.45537 | 19.71511 | 723 ft | 138 kts | 175° |
| 2026-05-06 06:41 | 41.44577 | 19.71642 | 559 ft | 139 kts | 175° |
| 2026-05-06 06:41 | 41.43617 | 19.71773 | 358 ft | 139 kts | 174° |
| 2026-05-06 06:42 | 41.42673 | 19.71902 | 158 ft | 137 kts | 176° |
| 2026-05-06 06:42 | 41.41786 | 19.72018 | 116 ft | 110 kts | 174° |
| 2026-05-06 06:42 | 41.41200 | 19.72092 | 123 ft | 60 kts | 174° |
| 2026-05-06 06:42 | 41.40894 | 19.72133 | 125 ft | 37 kts | 174° |
| 2026-05-06 06:43 | 41.40716 | 19.72150 | 126 ft | 10 kts | 183° |
| 2026-05-06 06:43 | 41.40681 | 19.72088 | 128 ft | 9 kts | 259° |
| 2026-05-06 06:43 | 41.40667 | 19.72007 | 126 ft | 9 kts | 256° |
| 2026-05-06 06:43 | 41.40654 | 19.71936 | 128 ft | 7 kts | 256° |
| 2026-05-06 06:44 | 41.40641 | 19.71869 | 128 ft | 7 kts | 256° |
| 2026-05-06 06:44 | 41.40638 | 19.71796 | 124 ft | 9 kts | 294° |
| 2026-05-06 06:44 | 41.40692 | 19.71768 | 124 ft | 12 kts | 352° |
| 2026-05-06 06:44 | 41.40790 | 19.71749 | 126 ft | 16 kts | 351° |
| 2026-05-06 06:45 | 41.40908 | 19.71724 | 122 ft | 19 kts | 351° |
| 2026-05-06 06:45 | 41.41048 | 19.71699 | 123 ft | 22 kts | 354° |
| 2026-05-06 06:45 | 41.41208 | 19.71678 | 121 ft | 24 kts | 354° |
| 2026-05-06 06:45 | 41.41384 | 19.71656 | 119 ft | 24 kts | 355° |
| 2026-05-06 06:46 | 41.41533 | 19.71636 | 121 ft | 22 kts | 354° |
| 2026-05-06 06:46 | 41.41683 | 19.71616 | 117 ft | 17 kts | 354° |
| 2026-05-06 06:46 | 41.41796 | 19.71601 | 118 ft | 18 kts | 354° |
| 2026-05-06 06:46 | 41.41899 | 19.71588 | 119 ft | 12 kts | 354° |
| 2026-05-06 06:47 | 41.41975 | 19.71578 | 118 ft | 7 kts | 350° |
| 2026-05-06 06:47 | 41.41990 | 19.71535 | 116 ft | 5 kts | 269° |
| 2026-05-06 06:47 | 41.41988 | 19.71512 | 115 ft | 0 kts | 263° |